Time;durP1;ratioP1;P1;durP2;ratioP2;P2;SDS_P1;SDS_P2;PMS_P1;PMS_P2;Temp;Humidity;BMP_temperature;BMP_pressure;BME280_temperature;BME280_humidity;BME280_pressure;Samples;Min_cycle;Max_cycle;Signal;HPM_P1;HPM_P2
2023/05/21 00:00:34;;;;;;;10.40;9.40;;;;;;;14.64;100.00;96745.50;5035770;28;20245;-68
2023/05/21 00:03:01;;;;;;;10.87;10.10;;;;;;;14.61;100.00;96741.44;5050730;28;20263;-67
2023/05/21 00:05:29;;;;;;;10.33;9.40;;;;;;;14.65;100.00;96742.63;4997527;28;20833;-68
2023/05/21 00:07:57;;;;;;;9.93;9.23;;;;;;;14.67;100.00;96751.22;5048356;28;20737;-67
2023/05/21 00:10:26;;;;;;;10.27;9.50;;;;;;;14.70;100.00;96744.59;5027057;28;22055;-68
2023/05/21 00:12:54;;;;;;;10.97;9.97;;;;;;;14.71;100.00;96738.25;5052656;28;20213;-67
2023/05/21 00:15:21;;;;;;;9.73;9.03;;;;;;;14.67;100.00;96739.72;5028713;28;20561;-67
2023/05/21 00:17:51;;;;;;;10.90;10.00;;;;;;;14.69;100.00;96742.97;5053788;28;20230;-67
2023/05/21 00:20:19;;;;;;;10.57;9.70;;;;;;;14.69;100.00;96733.13;5004656;28;20206;-68
2023/05/21 00:22:47;;;;;;;9.57;8.87;;;;;;;14.65;100.00;96734.63;5052185;28;20842;-66
2023/05/21 00:25:15;;;;;;;11.10;10.10;;;;;;;14.64;100.00;96734.81;5048741;28;20792;-68
2023/05/21 00:27:43;;;;;;;10.87;10.07;;;;;;;14.60;100.00;96729.94;5052280;28;20263;-68
2023/05/21 00:30:11;;;;;;;10.97;10.10;;;;;;;14.73;100.00;96729.03;5030507;28;20304;-68
2023/05/21 00:32:38;;;;;;;11.03;9.90;;;;;;;14.77;100.00;96729.38;5049996;28;20688;-68
2023/05/21 00:35:09;;;;;;;10.80;9.93;;;;;;;14.86;100.00;96717.41;5039855;28;20211;-68
2023/05/21 00:37:36;;;;;;;10.10;9.30;;;;;;;14.91;100.00;96719.38;5024025;28;20237;-69
2023/05/21 00:40:07;;;;;;;9.93;9.13;;;;;;;14.94;100.00;96724.25;5051295;28;20763;-68
2023/05/21 00:42:38;;;;;;;9.57;8.70;;;;;;;14.95;100.00;96711.75;5031076;28;20486;-69
2023/05/21 00:45:08;;;;;;;9.87;9.17;;;;;;;14.92;100.00;96715.66;5048861;28;20221;-67
2023/05/21 00:47:37;;;;;;;11.87;10.83;;;;;;;15.03;100.00;96714.09;5041563;28;20502;-68
2023/05/21 00:50:08;;;;;;;10.73;9.83;;;;;;;15.10;100.00;96714.03;5050515;28;20268;-68
2023/05/21 00:52:40;;;;;;;10.47;9.70;;;;;;;15.10;100.00;96711.38;5006332;28;20244;-68
2023/05/21 00:55:09;;;;;;;9.27;8.57;;;;;;;15.07;100.00;96715.28;5052910;28;21036;-68
2023/05/21 00:57:37;;;;;;;10.07;9.17;;;;;;;15.07;100.00;96706.47;5035779;28;20543;-69
2023/05/21 01:00:07;;;;;;;10.90;10.00;;;;;;;15.09;100.00;96707.06;5053686;28;20222;-67
2023/05/21 01:02:36;;;;;;;10.27;9.43;;;;;;;15.09;100.00;96707.06;5030736;28;20669;-66
2023/05/21 01:05:05;;;;;;;10.53;9.40;;;;;;;15.02;100.00;96697.31;5048738;28;20240;-67
2023/05/21 01:07:37;;;;;;;10.93;10.13;;;;;;;15.04;100.00;96713.06;4997878;28;20315;-68
2023/05/21 01:10:07;;;;;;;10.50;9.50;;;;;;;15.02;100.00;96701.81;5051596;28;20210;-66
2023/05/21 01:12:35;;;;;;;10.47;9.50;;;;;;;15.03;100.00;96709.59;5033087;28;20404;-67
2023/05/21 01:15:04;;;;;;;10.90;10.10;;;;;;;14.99;100.00;96700.44;5056910;28;20202;-67
2023/05/21 01:17:32;;;;;;;10.50;9.70;;;;;;;14.93;100.00;96709.28;5036637;28;20962;-68
2023/05/21 01:20:05;;;;;;;10.53;9.43;;;;;;;14.95;100.00;96698.41;5052184;28;20586;-68
2023/05/21 01:22:38;;;;;;;10.27;9.47;;;;;;;14.78;100.00;96675.03;5003447;28;20242;-70
2023/05/21 01:25:08;;;;;;;10.37;9.57;;;;;;;14.87;100.00;96695.03;5037909;28;20616;-67
2023/05/21 01:27:36;;;;;;;10.37;9.57;;;;;;;14.91;100.00;96698.03;5053454;28;20515;-68
2023/05/21 01:30:04;;;;;;;9.73;9.00;;;;;;;14.92;100.00;96702.34;5030902;28;20329;-69
2023/05/21 01:32:35;;;;;;;10.10;9.27;;;;;;;14.90;100.00;96705.25;5033603;28;23755;-68
2023/05/21 01:35:05;;;;;;;9.97;9.17;;;;;;;14.87;100.00;96707.53;5051853;28;20919;-67
2023/05/21 01:37:37;;;;;;;10.10;9.27;;;;;;;14.72;100.00;96700.72;5000379;28;21224;-69
2023/05/21 01:40:10;;;;;;;10.47;9.57;;;;;;;14.72;100.00;96694.56;5055381;28;20744;-67
2023/05/21 01:42:41;;;;;;;10.47;9.67;;;;;;;14.73;100.00;96697.03;5054753;28;20870;-65
2023/05/21 01:45:10;;;;;;;10.43;9.50;;;;;;;14.67;100.00;96708.53;5033628;28;20218;-66
2023/05/21 01:47:39;;;;;;;10.60;9.80;;;;;;;14.67;100.00;96702.38;5049351;28;20853;-67
2023/05/21 01:50:08;;;;;;;10.70;9.80;;;;;;;14.71;100.00;96703.59;5031865;28;20654;-67
2023/05/21 01:52:36;;;;;;;10.53;9.63;;;;;;;14.59;100.00;96698.97;5053131;28;20291;-68
2023/05/21 01:55:04;;;;;;;10.80;10.00;;;;;;;14.55;100.00;96696.97;5004500;28;20252;-67
2023/05/21 01:57:33;;;;;;;10.70;9.80;;;;;;;14.57;100.00;96698.38;5056584;28;20450;-68
2023/05/21 02:00:01;;;;;;;10.57;9.67;;;;;;;14.61;100.00;96696.09;5044056;28;20259;-68
2023/05/21 02:02:28;;;;;;;10.90;9.90;;;;;;;14.43;100.00;96676.38;5045415;28;21012;-67
2023/05/21 02:04:56;;;;;;;9.97;9.20;;;;;;;14.55;100.00;96695.13;5034556;28;20213;-67
2023/05/21 02:07:24;;;;;;;10.73;9.93;;;;;;;14.45;100.00;96692.16;5044207;28;20312;-70
2023/05/21 02:09:51;;;;;;;11.10;10.20;;;;;;;14.42;100.00;96692.63;5002818;28;20849;-67
2023/05/21 02:12:19;;;;;;;10.87;9.93;;;;;;;14.39;100.00;96685.88;5050649;28;20222;-67
2023/05/21 02:14:49;;;;;;;10.00;9.30;;;;;;;14.42;100.00;96688.09;5035423;28;20211;-66
2023/05/21 02:17:17;;;;;;;10.93;9.93;;;;;;;14.38;100.00;96688.75;5050212;28;20226;-67
2023/05/21 02:19:45;;;;;;;10.83;9.83;;;;;;;14.40;100.00;96684.81;5033873;28;20360;-69
2023/05/21 02:22:12;;;;;;;10.67;9.87;;;;;;;14.40;100.00;96687.50;5045921;28;20318;-66
2023/05/21 02:24:40;;;;;;;10.67;9.73;;;;;;;14.42;100.00;96684.63;5008908;28;21484;-67
2023/05/21 02:27:09;;;;;;;10.57;9.73;;;;;;;14.39;100.00;96680.53;5056614;28;20345;-66
2023/05/21 02:29:36;;;;;;;10.57;9.57;;;;;;;14.40;100.00;96687.50;5052411;28;20564;-67
2023/05/21 02:32:06;;;;;;;10.83;9.80;;;;;;;14.40;100.00;96686.69;5035448;28;20352;-66
2023/05/21 02:34:36;;;;;;;10.33;9.43;;;;;;;14.43;100.00;96692.38;5051847;28;20487;-67
2023/05/21 02:37:03;;;;;;;10.47;9.60;;;;;;;14.36;100.00;96690.81;5038637;28;20238;-65
2023/05/21 02:39:31;;;;;;;10.77;9.77;;;;;;;14.27;100.00;96684.97;5051697;28;20312;-67
2023/05/21 02:41:58;;;;;;;10.40;9.60;;;;;;;14.23;100.00;96681.13;5002592;28;20232;-67
2023/05/21 02:44:26;;;;;;;10.53;9.73;;;;;;;14.24;100.00;96677.41;5052607;28;20322;-67
2023/05/21 02:46:54;;;;;;;11.30;10.30;;;;;;;14.20;100.00;96671.69;5031119;28;20344;-67
2023/05/21 02:49:23;;;;;;;11.83;10.83;;;;;;;14.21;100.00;96672.53;5049819;28;20194;-66
2023/05/21 02:51:50;;;;;;;10.87;9.97;;;;;;;14.19;100.00;96670.06;5037398;28;20398;-67
2023/05/21 02:54:18;;;;;;;10.97;10.00;;;;;;;14.17;100.00;96672.94;5046317;28;20302;-68
2023/05/21 02:56:45;;;;;;;10.50;9.70;;;;;;;14.12;100.00;96659.47;5003077;28;20206;-69
2023/05/21 02:59:13;;;;;;;10.97;10.10;;;;;;;14.16;100.00;96673.97;5050669;28;20230;-67
2023/05/21 03:01:41;;;;;;;9.73;9.03;;;;;;;14.14;100.00;96675.25;5030232;28;20252;-67
2023/05/21 03:04:08;;;;;;;10.27;9.43;;;;;;;14.08;100.00;96670.81;5050674;28;20294;-67
2023/05/21 03:06:37;;;;;;;11.23;10.33;;;;;;;13.99;100.00;96664.94;5037048;28;21027;-68
2023/05/21 03:09:05;;;;;;;10.83;10.03;;;;;;;14.00;100.00;96678.00;5050722;28;20708;-68
2023/05/21 03:11:32;;;;;;;10.70;9.80;;;;;;;14.00;100.00;96679.88;5001362;28;20955;-67
2023/05/21 03:14:00;;;;;;;11.47;10.50;;;;;;;13.99;100.00;96670.25;5051984;28;20206;-67
2023/05/21 03:16:28;;;;;;;10.47;9.67;;;;;;;13.96;100.00;96678.69;5053140;28;20405;-67
2023/05/21 03:18:56;;;;;;;10.97;10.17;;;;;;;13.89;100.00;96676.91;5031881;28;20218;-67
2023/05/21 03:21:23;;;;;;;10.43;9.53;;;;;;;13.90;100.00;96672.38;5031888;28;20932;-67
2023/05/21 03:23:57;;;;;;;11.17;10.17;;;;;;;13.87;100.00;96670.97;5055077;28;20198;-67
2023/05/21 03:26:26;;;;;;;11.23;10.23;;;;;;;13.86;100.00;96676.50;5025136;28;20213;-66
2023/05/21 03:28:54;;;;;;;11.33;10.43;;;;;;;13.83;100.00;96672.44;5002590;28;20359;-70
2023/05/21 03:31:21;;;;;;;12.03;11.03;;;;;;;13.77;100.00;96670.63;5056580;28;20246;-70
2023/05/21 03:33:50;;;;;;;11.43;10.43;;;;;;;13.68;100.00;96670.09;5028124;28;21179;-69
2023/05/21 03:36:17;;;;;;;11.70;10.60;;;;;;;13.58;100.00;96675.06;5048655;28;20206;-68
2023/05/21 03:38:45;;;;;;;11.67;10.67;;;;;;;13.51;100.00;96682.28;5032453;28;20368;-66
2023/05/21 03:41:14;;;;;;;10.97;9.97;;;;;;;13.51;100.00;96677.78;5054005;28;20282;-67
2023/05/21 03:43:41;;;;;;;10.97;10.03;;;;;;;13.47;100.00;96679.25;5002683;28;20214;-66
2023/05/21 03:46:09;;;;;;;11.67;10.57;;;;;;;13.42;100.00;96679.88;5052593;28;20209;-70
2023/05/21 03:48:37;;;;;;;11.53;10.63;;;;;;;13.36;100.00;96677.22;5035160;28;20206;-66
2023/05/21 03:51:04;;;;;;;11.17;10.37;;;;;;;13.43;100.00;96673.53;5048219;28;20391;-68
2023/05/21 03:53:34;;;;;;;11.43;10.53;;;;;;;13.55;100.00;96681.66;5031976;28;20217;-68
2023/05/21 03:56:01;;;;;;;11.73;10.83;;;;;;;13.65;100.00;96683.84;5045165;28;20224;-68
2023/05/21 03:58:30;;;;;;;12.23;11.23;;;;;;;13.66;100.00;96684.66;4998385;28;20223;-67
2023/05/21 04:00:59;;;;;;;11.43;10.43;;;;;;;13.72;100.00;96683.78;5047257;28;20308;-68
2023/05/21 04:03:26;;;;;;;11.90;10.87;;;;;;;13.69;100.00;96682.38;5053120;28;21021;-67
2023/05/21 04:05:55;;;;;;;11.80;10.70;;;;;;;13.74;100.00;96687.88;5027087;28;20880;-69
2023/05/21 04:08:22;;;;;;;11.33;10.40;;;;;;;13.72;100.00;96676.63;5031811;28;20202;-67
2023/05/21 04:10:50;;;;;;;12.07;11.07;;;;;;;13.82;100.00;96688.63;5049709;28;20352;-68
2023/05/21 04:13:17;;;;;;;12.50;11.50;;;;;;;13.84;100.00;96689.22;4998559;28;20212;-68
2023/05/21 04:15:47;;;;;;;11.93;10.93;;;;;;;13.92;100.00;96682.81;5051462;28;20210;-68
2023/05/21 04:18:15;;;;;;;12.10;11.10;;;;;;;13.97;100.00;96677.66;5046954;28;20199;-69
2023/05/21 04:20:43;;;;;;;11.57;10.50;;;;;;;14.02;100.00;96683.13;5029774;28;20372;-68
2023/05/21 04:23:11;;;;;;;11.53;10.53;;;;;;;14.04;100.00;96681.91;5034571;28;20217;-68
2023/05/21 04:25:38;;;;;;;11.47;10.57;;;;;;;14.12;100.00;96685.31;5056823;28;20210;-68
2023/05/21 04:28:06;;;;;;;11.93;11.03;;;;;;;14.15;100.00;96690.19;5004884;28;21358;-69
2023/05/21 04:30:34;;;;;;;12.40;11.30;;;;;;;14.20;100.00;96690.34;5058447;28;20199;-68
2023/05/21 04:33:03;;;;;;;11.50;10.60;;;;;;;14.21;100.00;96684.00;5053990;28;20564;-68
2023/05/21 04:35:31;;;;;;;12.20;11.10;;;;;;;14.22;100.00;96684.81;5059265;28;20207;-68
2023/05/21 04:37:59;;;;;;;12.10;10.90;;;;;;;14.25;100.00;96685.19;5053343;28;20340;-69
2023/05/21 04:40:29;;;;;;;11.87;10.97;;;;;;;14.27;100.00;96688.44;5036131;28;20792;-69
2023/05/21 04:42:56;;;;;;;12.70;11.63;;;;;;;14.27;100.00;96682.31;5053006;28;20248;-69
2023/05/21 04:45:24;;;;;;;11.87;11.03;;;;;;;14.35;100.00;96686.50;5008150;28;20305;-68
2023/05/21 04:47:52;;;;;;;12.67;11.40;;;;;;;14.36;100.00;96691.63;5055609;28;20325;-68
2023/05/21 04:50:22;;;;;;;12.53;11.40;;;;;;;14.43;100.00;96683.59;5036684;28;20202;-67
2023/05/21 04:52:49;;;;;;;12.17;10.97;;;;;;;14.57;100.00;96689.56;5053999;28;21197;-69
2023/05/21 04:55:17;;;;;;;11.63;10.73;;;;;;;14.67;100.00;96689.88;5035371;28;20212;-69
2023/05/21 04:57:45;;;;;;;12.40;11.37;;;;;;;14.87;100.00;96689.69;5053173;28;20213;-67
2023/05/21 05:00:13;;;;;;;12.60;11.60;;;;;;;15.01;100.00;96686.84;4974386;28;20250;-66
2023/05/21 05:02:41;;;;;;;11.43;10.53;;;;;;;15.16;100.00;96687.28;5051513;28;20273;-67
2023/05/21 05:05:09;;;;;;;11.90;10.80;;;;;;;15.24;100.00;96688.00;5035331;28;20206;-67
2023/05/21 05:07:38;;;;;;;11.57;10.67;;;;;;;15.39;100.00;96687.59;5051565;28;20206;-68
2023/05/21 05:10:06;;;;;;;11.70;10.80;;;;;;;15.57;100.00;96686.72;5035130;28;20849;-66
2023/05/21 05:12:34;;;;;;;12.38;11.48;;;;;;;15.70;100.00;96680.34;5052543;28;20517;-65
2023/05/21 05:15:01;;;;;;;12.23;11.33;;;;;;;15.86;100.00;96679.69;5004978;28;20970;-68
2023/05/21 05:17:29;;;;;;;11.77;10.63;;;;;;;16.03;100.00;96679.03;5057548;28;20524;-66
2023/05/21 05:19:57;;;;;;;11.33;10.43;;;;;;;16.10;100.00;96681.59;5051852;28;20604;-67
2023/05/21 05:22:24;;;;;;;11.63;10.80;;;;;;;16.27;100.00;96687.88;5036155;28;21258;-68
2023/05/21 05:24:53;;;;;;;12.57;11.40;;;;;;;16.53;100.00;96682.28;5031941;28;20614;-68
2023/05/21 05:27:21;;;;;;;11.27;10.37;;;;;;;16.53;100.00;96667.03;5028066;28;20624;-67
2023/05/21 05:29:48;;;;;;;11.57;10.53;;;;;;;16.85;100.00;96685.38;5054019;28;20195;-68
2023/05/21 05:32:16;;;;;;;12.07;11.07;;;;;;;16.88;100.00;96681.41;4999734;28;20234;-67
2023/05/21 05:34:46;;;;;;;11.40;10.57;;;;;;;17.01;100.00;96681.16;5057374;28;20328;-67
2023/05/21 05:37:13;;;;;;;11.93;10.93;;;;;;;17.16;100.00;96682.50;5027159;28;20675;-67
2023/05/21 05:39:41;;;;;;;11.67;10.77;;;;;;;17.26;100.00;96682.72;5030653;28;20696;-67
2023/05/21 05:42:10;;;;;;;10.47;9.67;;;;;;;17.32;100.00;96672.88;5034744;28;20226;-69
2023/05/21 05:44:37;;;;;;;11.30;10.23;;;;;;;17.65;100.00;96680.19;5053002;28;20691;-68
2023/05/21 05:47:09;;;;;;;10.97;10.00;;;;;;;17.99;100.00;96679.38;4959768;28;20218;-68
2023/05/21 05:49:37;;;;;;;12.70;11.57;;;;;;;18.14;100.00;96676.16;5050752;28;20306;-68
2023/05/21 05:52:05;;;;;;;12.03;10.83;;;;;;;18.19;100.00;96676.22;5014800;28;20333;-67
2023/05/21 05:54:33;;;;;;;11.57;10.53;;;;;;;18.33;100.00;96684.75;5048940;28;20321;-67
2023/05/21 05:57:00;;;;;;;11.80;10.80;;;;;;;18.27;100.00;96687.59;5037848;28;20210;-67
2023/05/21 05:59:29;;;;;;;11.97;10.87;;;;;;;18.05;100.00;96685.69;5025278;28;20852;-67
2023/05/21 06:01:57;;;;;;;11.40;10.47;;;;;;;18.08;100.00;96679.81;5003156;28;20288;-67
2023/05/21 06:04:24;;;;;;;12.00;10.93;;;;;;;18.21;100.00;96689.41;5055592;28;21197;-66
2023/05/21 06:06:53;;;;;;;11.40;10.40;;;;;;;18.36;100.00;96688.78;5037696;28;20631;-67
2023/05/21 06:09:21;;;;;;;11.13;10.23;;;;;;;18.56;100.00;96690.16;5045977;28;20791;-66
2023/05/21 06:11:48;;;;;;;11.90;10.80;;;;;;;18.70;100.00;96693.28;5047446;28;20613;-67
2023/05/21 06:14:16;;;;;;;11.67;10.73;;;;;;;18.68;100.00;96692.72;5037710;28;20766;-69
2023/05/21 06:16:45;;;;;;;10.93;10.03;;;;;;;18.64;100.00;96687.88;5002884;28;20756;-67
2023/05/21 06:19:12;;;;;;;11.30;10.40;;;;;;;18.63;100.00;96683.56;5051020;28;20430;-64
2023/05/21 06:21:40;;;;;;;11.50;10.57;;;;;;;18.75;100.00;96686.13;5050987;28;21478;-69
2023/05/21 06:24:08;;;;;;;11.27;10.30;;;;;;;18.87;100.00;96686.00;5037028;28;20206;-68
2023/05/21 06:26:35;;;;;;;12.00;11.00;;;;;;;19.15;100.00;96686.09;5051965;28;20510;-68
2023/05/21 06:29:03;;;;;;;9.93;9.23;;;;;;;19.03;100.00;96683.53;5040906;28;20217;-68
2023/05/21 06:31:31;;;;;;;11.17;10.27;;;;;;;18.94;100.00;96691.19;5000701;28;21581;-70
2023/05/21 06:34:01;;;;;;;12.37;11.37;;;;;;;18.76;100.00;96682.38;5057626;28;20647;-68
2023/05/21 06:36:31;;;;;;;12.17;11.07;;;;;;;18.86;100.00;96672.84;5049521;28;20329;-68
2023/05/21 06:38:58;;;;;;;11.13;10.17;;;;;;;18.89;100.00;96691.13;5035191;28;20877;-70
2023/05/21 06:41:26;;;;;;;11.57;10.50;;;;;;;18.86;100.00;96697.00;5050971;28;20642;-66
2023/05/21 06:43:54;;;;;;;11.03;10.23;;;;;;;18.97;100.00;96690.69;5041838;28;20534;-68
2023/05/21 06:46:22;;;;;;;11.10;10.27;;;;;;;19.18;100.00;96694.44;5015812;28;20267;-66
2023/05/21 06:48:49;;;;;;;11.33;10.53;;;;;;;19.32;100.00;96694.84;5046712;28;20219;-66
2023/05/21 06:51:18;;;;;;;10.97;10.17;;;;;;;19.29;100.00;96686.47;5049281;28;20221;-66
2023/05/21 06:53:46;;;;;;;12.63;11.37;;;;;;;19.40;100.00;96693.59;5032735;28;20534;-67
2023/05/21 06:56:15;;;;;;;12.10;10.97;;;;;;;19.60;100.00;96684.09;5052302;28;20301;-67
2023/05/21 06:58:43;;;;;;;10.83;9.90;;;;;;;19.88;100.00;96695.66;5029629;28;20965;-67
2023/05/21 07:01:11;;;;;;;11.50;10.50;;;;;;;20.32;100.00;96683.91;5050112;28;20269;-66
2023/05/21 07:03:39;;;;;;;11.23;10.43;;;;;;;20.71;100.00;96677.38;4999425;28;20617;-66
2023/05/21 07:06:06;;;;;;;9.93;9.20;;;;;;;21.23;100.00;96681.13;5052657;28;20229;-65
2023/05/21 07:08:35;;;;;;;10.90;9.90;;;;;;;21.42;100.00;96683.34;5014781;28;20894;-66
2023/05/21 07:11:03;;;;;;;11.40;10.50;;;;;;;21.42;100.00;96677.94;5051341;28;20264;-66
2023/05/21 07:13:31;;;;;;;10.70;10.00;;;;;;;21.55;100.00;96686.31;5052902;28;20446;-67
2023/05/21 07:15:58;;;;;;;10.23;9.53;;;;;;;21.47;100.00;96676.06;5036745;28;20668;-65
2023/05/21 07:18:26;;;;;;;11.37;10.37;;;;;;;21.50;100.00;96685.50;4992001;28;20595;-66
2023/05/21 07:20:54;;;;;;;10.77;9.83;;;;;;;21.49;100.00;96679.28;5056533;28;20244;-65
2023/05/21 07:23:21;;;;;;;11.33;10.43;;;;;;;21.54;100.00;96676.59;5033514;28;20404;-65
2023/05/21 07:25:51;;;;;;;10.70;9.90;;;;;;;21.60;100.00;96679.31;5054633;28;20384;-67
2023/05/21 07:28:19;;;;;;;10.50;9.70;;;;;;;21.45;100.00;96683.59;5026069;28;20402;-66
2023/05/21 07:30:46;;;;;;;10.70;9.90;;;;;;;21.26;100.00;96683.28;5033303;28;20276;-65
2023/05/21 07:33:15;;;;;;;10.67;9.87;;;;;;;20.98;100.00;96679.16;5051507;28;20207;-65
2023/05/21 07:35:42;;;;;;;11.20;10.07;;;;;;;21.16;100.00;96684.06;5003254;28;20407;-65
2023/05/21 07:38:10;;;;;;;11.10;10.20;;;;;;;21.31;100.00;96683.28;5046057;28;20720;-64
2023/05/21 07:40:38;;;;;;;10.53;9.63;;;;;;;21.52;100.00;96677.97;5040590;28;20401;-66
2023/05/21 07:43:07;;;;;;;10.77;9.80;;;;;;;21.81;100.00;96674.78;5052960;28;20681;-65
2023/05/21 07:45:34;;;;;;;10.73;9.67;;;;;;;21.87;100.00;96673.72;5031634;28;21032;-65
2023/05/21 07:48:02;;;;;;;11.40;10.27;;;;;;;22.03;100.00;96676.38;5051250;28;20638;-65
2023/05/21 07:50:30;;;;;;;10.27;9.47;;;;;;;22.12;99.39;96680.16;4994287;28;20224;-65
2023/05/21 07:52:57;;;;;;;10.07;9.37;;;;;;;22.16;96.71;96675.03;5051578;28;20483;-63
2023/05/21 07:55:25;;;;;;;10.70;9.67;;;;;;;22.00;99.95;96676.94;5026089;28;20571;-63
2023/05/21 07:57:53;;;;;;;9.93;9.13;;;;;;;22.03;96.63;96679.09;5054525;28;20471;-65
2023/05/21 08:00:23;;;;;;;11.03;10.10;;;;;;;22.05;99.33;96669.66;5025187;28;20666;-66
2023/05/21 08:02:56;;;;;;;9.77;9.10;;;;;;;22.26;97.03;96669.63;5031170;28;20344;-63
2023/05/21 08:05:24;;;;;;;11.50;10.50;;;;;;;22.32;92.73;96676.63;4997389;28;20211;-66
2023/05/21 08:07:52;;;;;;;9.90;9.10;;;;;;;22.29;93.79;96669.06;5047714;28;20736;-64
2023/05/21 08:10:19;;;;;;;10.27;9.37;;;;;;;22.44;95.95;96670.94;5033001;28;20895;-66
2023/05/21 08:12:47;;;;;;;9.40;8.60;;;;;;;22.68;91.91;96667.66;5053034;28;21064;-64
2023/05/21 08:15:15;;;;;;;9.90;9.17;;;;;;;22.80;90.52;96672.75;5031370;28;20224;-65
2023/05/21 08:17:43;;;;;;;9.90;9.10;;;;;;;22.97;88.34;96670.53;5025998;28;20207;-64
2023/05/21 08:20:13;;;;;;;10.53;9.63;;;;;;;23.13;91.81;96667.78;5047763;28;20682;-64
2023/05/21 08:22:42;;;;;;;10.43;9.57;;;;;;;23.20;81.72;96667.44;4989435;28;20326;-66
2023/05/21 08:25:09;;;;;;;9.70;8.87;;;;;;;23.29;75.70;96679.31;5056733;28;20206;-65
2023/05/21 08:27:37;;;;;;;7.83;7.13;;;;;;;22.59;63.86;96672.81;5009841;28;20206;-64
2023/05/21 08:30:06;;;;;;;8.97;8.37;;;;;;;22.74;62.25;96677.38;5051843;28;20307;-64
2023/05/21 08:32:33;;;;;;;7.80;7.20;;;;;;;22.98;59.42;96674.06;5039513;28;20214;-64
2023/05/21 08:35:03;;;;;;;8.07;7.47;;;;;;;23.00;60.55;96663.78;5047697;28;20601;-65
2023/05/21 08:37:31;;;;;;;8.03;7.33;;;;;;;23.56;59.61;96656.44;5000452;28;20214;-64
2023/05/21 08:39:58;;;;;;;7.80;7.10;;;;;;;23.53;58.32;96665.13;5052230;28;20904;-65
2023/05/21 08:42:30;;;;;;;8.97;7.27;;;;;;;23.50;58.16;96653.00;5035576;28;20795;-64
2023/05/21 08:45:05;;;;;;;7.90;7.30;;;;;;;23.69;57.75;96668.53;5052829;28;20211;-64
2023/05/21 08:47:35;;;;;;;7.57;7.00;;;;;;;23.79;58.97;96667.66;5037585;28;20586;-64
2023/05/21 08:50:05;;;;;;;8.07;7.40;;;;;;;23.99;59.80;96666.66;5048027;28;20317;-65
2023/05/21 08:52:33;;;;;;;8.53;7.70;;;;;;;24.19;58.41;96668.41;5016649;28;20613;-64
2023/05/21 08:55:02;;;;;;;7.40;6.90;;;;;;;24.40;57.02;96666.31;5038246;28;20245;-66
2023/05/21 08:57:31;;;;;;;8.33;7.60;;;;;;;24.06;58.39;96669.88;5044728;28;20324;-64
2023/05/21 08:59:58;;;;;;;7.97;7.27;;;;;;;24.05;56.02;96678.25;5039550;28;20718;-65
2023/05/21 09:02:26;;;;;;;8.57;7.77;;;;;;;24.07;56.32;96666.09;5047323;28;20447;-65
2023/05/21 09:04:56;;;;;;;8.07;7.27;;;;;;;24.28;57.04;96676.72;5030217;28;20342;-64
2023/05/21 09:07:27;;;;;;;7.60;7.00;;;;;;;24.28;56.16;96641.53;5037230;28;20234;-64
2023/05/21 09:09:57;;;;;;;7.10;6.50;;;;;;;24.46;53.62;96672.50;5018639;28;20501;-64
2023/05/21 09:12:25;;;;;;;8.07;7.47;;;;;;;24.55;54.19;96659.94;5048928;28;20624;-64
2023/05/21 09:14:53;;;;;;;8.30;7.70;;;;;;;24.65;54.88;96661.72;5034419;28;20303;-64
2023/05/21 09:17:20;;;;;;;7.67;7.07;;;;;;;24.50;53.94;96664.59;5054469;28;20581;-63
2023/05/21 09:20:08;;;;;;;8.30;7.60;;;;;;;24.61;53.16;96678.81;5015571;28;20248;-64
2023/05/21 09:22:40;;;;;;;7.50;6.90;;;;;;;24.58;52.48;96669.38;5005351;28;20663;-63
2023/05/21 09:25:09;;;;;;;7.53;7.03;;;;;;;24.89;54.39;96669.03;5057524;28;20668;-64
2023/05/21 09:27:37;;;;;;;8.07;7.33;;;;;;;24.77;54.59;96663.25;5051072;28;20610;-64
2023/05/21 09:30:08;;;;;;;7.43;6.80;;;;;;;24.60;54.73;96658.25;5041407;28;20594;-65
2023/05/21 09:32:36;;;;;;;8.13;7.33;;;;;;;24.49;55.43;96660.25;5052347;28;20338;-64
2023/05/21 09:35:09;;;;;;;8.27;7.47;;;;;;;24.49;55.86;96644.03;5046635;28;20801;-66
2023/05/21 09:37:39;;;;;;;7.67;7.17;;;;;;;24.47;57.18;96647.03;4989140;28;20575;-64
2023/05/21 09:40:12;;;;;;;8.20;7.60;;;;;;;24.96;53.67;96666.00;5056173;28;20280;-63
2023/05/21 09:42:40;;;;;;;7.87;7.20;;;;;;;24.79;54.80;96661.84;5053168;28;20249;-66
2023/05/21 09:45:09;;;;;;;8.17;7.57;;;;;;;24.85;53.79;96638.22;5040937;28;20742;-65
2023/05/21 09:47:41;;;;;;;7.80;7.30;;;;;;;24.51;54.60;96664.31;5030121;28;20630;-64
2023/05/21 09:50:10;;;;;;;8.07;7.47;;;;;;;24.38;55.42;96663.09;5055038;28;20480;-66
2023/05/21 09:52:39;;;;;;;7.80;6.87;;;;;;;24.57;52.00;96662.34;5041184;28;20335;-65
2023/05/21 09:55:11;;;;;;;8.47;6.53;;;;;;;24.28;56.23;96671.31;5004450;28;20271;-64
2023/05/21 09:57:42;;;;;;;7.73;7.03;;;;;;;24.23;52.89;96657.81;5048257;28;20590;-64
2023/05/21 10:00:17;;;;;;;7.67;7.03;;;;;;;24.01;51.64;96663.69;5036904;28;20363;-64
2023/05/21 10:02:46;;;;;;;8.33;6.93;;;;;;;23.89;52.61;96653.25;5050022;28;20223;-66
2023/05/21 10:05:15;;;;;;;7.53;6.93;;;;;;;24.04;56.28;96668.53;5054012;28;20585;-67
2023/05/21 10:07:49;;;;;;;7.00;6.57;;;;;;;23.85;50.78;96658.41;5033035;28;20217;-66
2023/05/21 10:10:19;;;;;;;7.13;6.53;;;;;;;23.80;53.05;96653.03;4999109;28;20248;-67
2023/05/21 10:12:50;;;;;;;7.70;6.37;;;;;;;24.01;52.05;96661.00;5047188;28;20226;-65
2023/05/21 10:15:22;;;;;;;7.40;6.90;;;;;;;23.92;51.67;96645.34;5052418;28;20462;-65
2023/05/21 10:17:50;;;;;;;7.50;7.00;;;;;;;24.33;51.92;96679.38;5037674;28;20736;-66
2023/05/21 10:20:17;;;;;;;7.40;6.70;;;;;;;24.24;49.22;96673.78;5049311;28;20662;-67
2023/05/21 10:22:47;;;;;;;7.83;7.23;;;;;;;23.73;51.34;96663.38;5027357;28;20739;-66
2023/05/21 10:25:15;;;;;;;7.70;7.20;;;;;;;24.19;51.38;96663.00;5005802;28;20215;-66
2023/05/21 10:27:43;;;;;;;7.40;6.70;;;;;;;24.54;51.33;96657.50;5025128;28;20325;-66
2023/05/21 10:30:11;;;;;;;7.57;7.07;;;;;;;24.38;49.79;96660.38;5057056;28;20207;-67
2023/05/21 10:32:40;;;;;;;7.87;6.93;;;;;;;24.11;50.77;96664.41;5034586;28;20317;-67
2023/05/21 10:35:09;;;;;;;7.63;7.03;;;;;;;24.61;50.51;96662.56;5052101;28;20448;-68
2023/05/21 10:37:37;;;;;;;7.60;7.00;;;;;;;24.44;48.79;96655.72;5040836;28;20348;-67
2023/05/21 10:40:07;;;;;;;7.50;6.80;;;;;;;24.34;47.42;96664.75;5038973;28;20211;-69
2023/05/21 10:43:02;;;;;;;7.30;6.80;;;;;;;24.77;49.21;96652.41;5002622;28;20859;-66
2023/05/21 10:45:41;;;;;;;7.23;6.60;;;;;;;24.53;50.59;96655.88;5049532;28;20658;-67
2023/05/21 10:48:19;;;;;;;7.77;7.03;;;;;;;24.68;50.19;96658.44;5055675;28;20208;-67
2023/05/21 10:51:06;;;;;;;7.97;7.27;;;;;;;24.41;51.61;96653.56;5050218;28;20207;-67
2023/05/21 10:53:48;;;;;;;8.40;7.80;;;;;;;24.62;50.36;96650.66;5047587;28;20202;-67
2023/05/21 10:56:23;;;;;;;9.07;8.37;;;;;;;24.27;51.31;96631.81;5053825;28;20208;-68
2023/05/21 10:59:06;;;;;;;7.57;7.07;;;;;;;24.73;50.47;96662.19;5015942;28;20429;-68
2023/05/21 11:01:36;;;;;;;7.53;6.83;;;;;;;25.03;48.12;96649.38;5049777;28;20227;-67
2023/05/21 11:04:05;;;;;;;6.93;6.53;;;;;;;24.92;46.82;96663.03;5036914;28;20510;-68
2023/05/21 11:06:33;;;;;;;7.70;6.70;;;;;;;24.84;48.21;96653.69;5051897;28;20356;-67
2023/05/21 11:09:12;;;;;;;7.37;6.67;;;;;;;25.17;45.89;96652.16;5049523;28;20204;-68
2023/05/21 11:11:42;;;;;;;6.63;6.10;;;;;;;25.10;45.94;96657.97;5048657;28;21354;-68
2023/05/21 11:14:30;;;;;;;7.23;6.57;;;;;;;25.42;46.55;96654.53;5009709;28;20227;-69
2023/05/21 11:16:58;;;;;;;6.53;6.03;;;;;;;25.31;46.58;96650.34;5055137;28;20530;-68
2023/05/21 11:19:34;;;;;;;6.43;5.97;;;;;;;24.96;46.57;96661.38;5034900;28;20228;-66
2023/05/21 11:22:05;;;;;;;6.90;6.40;;;;;;;25.42;47.84;96662.66;5053503;28;20239;-67
2023/05/21 11:24:33;;;;;;;7.20;6.67;;;;;;;25.22;47.73;96647.50;5051635;28;20353;-66
2023/05/21 11:27:03;;;;;;;7.80;6.87;;;;;;;25.21;50.18;96639.66;5051594;28;20724;-67